Canefield Airport

Cloudy with adjacent showers and slight dust haze
29oC (84oF)

Cloudy with adjacent showers and slight dust haze


Winds: South easterly @ 07kts / 13km/h

Humidity: 69%

Barometric Pressure: 1015 mb

Accumulated Rainfall for June: 95.5 mm

Updated: 16:00 local time (20:00 UTC)

Douglas-Charles Airport

Cloudy with slight dust haze, adjacent showers and gusty winds
28oC (82oF)

Cloudy with slight dust haze, adjacent showers and gusty winds


Winds: East south easterly @ 10kts / 19km/h gusting to 20kts / 37km/h

Humidity: 81%

Barometric Pressure: 1017 mb

Accumulated Rainfall for June: 162.7 mm

Updated: 17:00 local time (21:00 UTC)

Satellite Imagery

Satellite Imagery
Click image for larger view. (Source: National Hurricane Center).

Aviation Routine Report (METAR)

Douglas-Charles: METAR TDPD 202100Z 11010G20KT 9999 BKN015TCU 28/24 Q1017=
Canefield: METAR TDCF 202000Z 14007KT 9999 BKN018 29/23 Q1015=